Time;durP1;ratioP1;P1;durP2;ratioP2;P2;SDS_P1;SDS_P2;PMS_P1;PMS_P2;Temp;Humidity;BMP_temperature;BMP_pressure;BME280_temperature;BME280_humidity;BME280_pressure;Samples;Min_cycle;Max_cycle;Signal;HPM_P1;HPM_P2
2024/01/11 00:01:29;;;;;;;13.35;10.48;;;22.20;39.70;;;;;;10229262;28;20067;-46
2024/01/11 00:06:32;;;;;;;11.30;9.18;;;22.40;39.40;;;;;;10229130;28;20048;-50
2024/01/11 00:11:33;;;;;;;11.70;8.77;;;22.40;39.30;;;;;;10215596;28;20048;-51
2024/01/11 00:16:35;;;;;;;13.02;10.07;;;22.40;39.30;;;;;;10187648;28;20058;-49
2024/01/11 00:21:38;;;;;;;12.00;9.40;;;22.30;39.40;;;;;;10190920;28;20066;-49
2024/01/11 00:26:41;;;;;;;10.73;8.50;;;22.10;39.50;;;;;;10192736;28;20050;-49
2024/01/11 00:31:43;;;;;;;10.13;7.93;;;22.10;39.70;;;;;;10198817;28;20044;-48
2024/01/11 00:36:45;;;;;;;11.65;8.40;;;22.20;39.30;;;;;;10193786;29;20047;-47
2024/01/11 00:41:47;;;;;;;10.50;8.35;;;22.20;39.20;;;;;;10189373;29;20047;-46
2024/01/11 00:46:49;;;;;;;11.10;8.23;;;22.30;38.90;;;;;;10192649;28;20060;-47
2024/01/11 00:51:52;;;;;;;10.05;7.75;;;22.20;39.00;;;;;;10193212;28;20134;-50
2024/01/11 00:56:53;;;;;;;11.82;7.82;;;22.10;39.00;;;;;;10188176;28;20485;-47
2024/01/11 01:01:55;;;;;;;9.07;7.00;;;21.90;39.50;;;;;;10191015;28;20506;-47
2024/01/11 01:06:58;;;;;;;8.57;7.20;;;22.00;39.40;;;;;;10186873;28;20060;-47
2024/01/11 01:11:59;;;;;;;8.13;6.75;;;22.00;39.30;;;;;;10204853;28;20051;-46
2024/01/11 01:17:01;;;;;;;8.45;6.70;;;22.00;39.00;;;;;;10230772;28;20057;-47
2024/01/11 01:22:04;;;;;;;8.25;6.35;;;22.10;38.80;;;;;;10233126;28;20058;-48
2024/01/11 01:27:06;;;;;;;7.85;6.13;;;22.10;38.90;;;;;;10232854;28;20462;-49
2024/01/11 01:32:07;;;;;;;9.38;6.50;;;22.00;38.90;;;;;;10233971;28;20053;-47
2024/01/11 01:37:10;;;;;;;7.32;6.00;;;21.80;39.20;;;;;;10234292;28;20057;-46
2024/01/11 01:42:12;;;;;;;7.25;6.00;;;21.70;39.30;;;;;;10227610;28;20569;-47
2024/01/11 01:47:13;;;;;;;6.80;5.68;;;21.60;39.60;;;;;;10225532;28;20051;-48
2024/01/11 01:52:16;;;;;;;7.28;5.45;;;21.50;39.50;;;;;;10227712;28;20055;-49
2024/01/11 01:57:18;;;;;;;5.90;5.30;;;21.70;39.30;;;;;;10231886;28;20219;-47
2024/01/11 02:02:20;;;;;;;7.68;5.55;;;21.60;39.20;;;;;;10229371;28;20482;-49
2024/01/11 02:07:23;;;;;;;6.22;5.15;;;21.80;39.00;;;;;;10227928;28;20047;-47
2024/01/11 02:12:25;;;;;;;5.55;4.50;;;21.70;39.10;;;;;;10229558;28;20364;-47
2024/01/11 02:17:27;;;;;;;5.97;5.00;;;21.40;39.50;;;;;;10228284;28;21405;-47
2024/01/11 02:22:32;;;;;;;5.95;4.90;;;21.60;39.10;;;;;;10229960;28;20065;-47
2024/01/11 02:27:47;;;;;;;5.15;4.28;;;21.60;39.20;;;;;;10231118;28;20082;-47
2024/01/11 02:32:49;;;;;;;5.95;4.68;;;21.70;38.80;;;;;;10223868;28;20410;-49
2024/01/11 02:37:51;;;;;;;5.32;4.40;;;21.60;38.90;;;;;;10223684;28;20062;-47
2024/01/11 02:42:54;;;;;;;5.80;4.35;;;21.60;39.10;;;;;;10226621;28;20086;-53
2024/01/11 02:47:55;;;;;;;5.22;4.22;;;21.40;39.30;;;;;;10225589;28;20055;-47
2024/01/11 02:52:57;;;;;;;4.95;4.00;;;21.50;39.80;;;;;;10227331;28;20059;-49
2024/01/11 02:58:00;;;;;;;4.25;3.58;;;21.40;39.30;;;;;;10222194;28;20059;-49
2024/01/11 03:03:02;;;;;;;4.30;3.80;;;21.30;39.40;;;;;;10238459;28;20051;-49
2024/01/11 03:08:04;;;;;;;4.32;3.85;;;21.20;39.40;;;;;;10232620;28;20408;-47
2024/01/11 03:13:08;;;;;;;5.63;3.70;;;21.20;39.40;;;;;;10230227;28;20493;-49
2024/01/11 03:18:10;;;;;;;4.82;3.33;;;21.50;39.00;;;;;;10225127;28;20043;-48
2024/01/11 03:23:12;;;;;;;4.25;3.28;;;21.60;38.70;;;;;;10222706;28;20054;-51
2024/01/11 03:28:15;;;;;;;4.00;3.40;;;21.30;39.10;;;;;;10234821;28;20057;-47
2024/01/11 03:33:16;;;;;;;4.32;3.58;;;21.40;38.90;;;;;;10243454;28;20047;-48
2024/01/11 03:38:21;;;;;;;4.20;3.70;;;21.30;39.00;;;;;;10232986;28;20056;-48
2024/01/11 03:43:24;;;;;;;3.60;3.13;;;21.30;39.00;;;;;;10238032;28;20146;-47
2024/01/11 03:48:25;;;;;;;3.95;3.20;;;21.40;38.70;;;;;;10246088;28;20055;-47
2024/01/11 03:53:27;;;;;;;4.68;3.35;;;21.30;39.10;;;;;;10220908;28;20514;-48
2024/01/11 03:58:30;;;;;;;3.72;3.22;;;21.30;38.90;;;;;;10240832;28;20134;-47
2024/01/11 04:03:31;;;;;;;3.25;2.95;;;21.40;38.70;;;;;;10242767;28;20047;-48
2024/01/11 04:08:33;;;;;;;3.60;3.13;;;21.40;38.70;;;;;;10250886;28;20119;-47
2024/01/11 04:13:37;;;;;;;3.38;2.88;;;21.60;39.20;;;;;;10239624;28;20048;-50
2024/01/11 04:18:38;;;;;;;3.13;2.83;;;21.80;38.20;;;;;;10247909;28;20054;-48
2024/01/11 04:23:40;;;;;;;4.63;3.03;;;21.90;38.10;;;;;;10247117;28;20054;-48
2024/01/11 04:28:43;;;;;;;2.60;2.40;;;22.10;37.80;;;;;;10231876;28;20047;-48
2024/01/11 04:33:44;;;;;;;3.13;2.55;;;22.60;37.40;;;;;;10272785;28;20148;-47
2024/01/11 04:38:46;;;;;;;3.00;2.70;;;22.80;37.00;;;;;;10241424;28;20118;-47
2024/01/11 04:43:49;;;;;;;3.03;2.42;;;23.00;36.80;;;;;;10245282;28;20043;-48
2024/01/11 04:48:51;;;;;;;2.55;2.35;;;23.10;36.70;;;;;;10225878;28;20056;-50
2024/01/11 04:53:52;;;;;;;2.50;2.30;;;23.20;36.70;;;;;;10219894;28;20048;-50
2024/01/11 04:58:55;;;;;;;2.50;2.30;;;23.20;36.70;;;;;;10228808;28;20137;-49
2024/01/11 05:03:57;;;;;;;2.83;2.55;;;23.30;36.50;;;;;;10227304;28;20520;-50
2024/01/11 05:08:58;;;;;;;2.40;2.17;;;23.40;36.40;;;;;;10235249;28;20506;-46
2024/01/11 05:14:01;;;;;;;2.47;2.28;;;23.40;36.50;;;;;;10236469;28;20375;-46
2024/01/11 05:19:03;;;;;;;3.35;2.25;;;23.00;37.10;;;;;;10236219;28;20101;-49
2024/01/11 05:24:05;;;;;;;2.45;2.20;;;22.90;37.50;;;;;;10235268;28;20049;-48
2024/01/11 05:29:09;;;;;;;2.58;2.10;;;23.10;37.30;;;;;;10228455;28;20142;-47
2024/01/11 05:34:12;;;;;;;2.05;1.85;;;23.30;37.20;;;;;;10245073;28;20051;-49
2024/01/11 05:39:14;;;;;;;1.95;1.73;;;23.50;36.90;;;;;;10236659;28;20043;-47
2024/01/11 05:44:17;;;;;;;2.10;2.00;;;23.70;36.70;;;;;;10234290;28;21498;-48
2024/01/11 05:49:18;;;;;;;2.20;1.98;;;23.80;36.50;;;;;;10235038;28;20566;-47
2024/01/11 05:54:20;;;;;;;2.20;2.00;;;23.90;36.50;;;;;;10239875;28;20163;-47
2024/01/11 05:59:23;;;;;;;2.28;2.08;;;24.10;36.30;;;;;;10226733;28;20075;-48
2024/01/11 06:04:24;;;;;;;2.95;2.75;;;24.30;36.00;;;;;;10233556;28;20043;-48
2024/01/11 06:09:26;;;;;;;3.17;2.90;;;23.80;36.20;;;;;;10237349;28;20510;-49
2024/01/11 06:14:29;;;;;;;3.95;2.70;;;23.80;36.10;;;;;;10232965;28;20052;-47
2024/01/11 06:19:31;;;;;;;3.30;3.00;;;23.60;36.50;;;;;;10240657;28;20134;-47
2024/01/11 06:24:33;;;;;;;6.90;2.90;;;23.40;36.90;;;;;;10246099;28;20116;-52
2024/01/11 06:29:35;;;;;;;3.00;2.70;;;23.20;37.40;;;;;;10247808;28;20627;-49
2024/01/11 06:34:37;;;;;;;2.78;2.58;;;23.10;37.60;;;;;;10243425;28;20130;-48
2024/01/11 06:39:39;;;;;;;3.08;2.78;;;23.20;37.00;;;;;;10231904;28;20051;-47
2024/01/11 06:44:42;;;;;;;3.20;2.90;;;23.00;37.30;;;;;;10222534;28;20491;-46
2024/01/11 06:49:43;;;;;;;3.20;2.90;;;23.00;37.30;;;;;;10222619;28;20040;-48
2024/01/11 06:54:45;;;;;;;3.30;3.00;;;23.00;37.50;;;;;;10236544;28;20134;-47
2024/01/11 06:59:48;;;;;;;3.20;2.92;;;23.10;38.00;;;;;;10233619;28;20048;-48
2024/01/11 07:04:50;;;;;;;3.03;2.72;;;22.90;37.70;;;;;;10234170;28;20130;-48
2024/01/11 07:09:54;;;;;;;3.50;3.20;;;22.70;37.90;;;;;;10228678;28;20166;-46
2024/01/11 07:14:57;;;;;;;3.72;3.20;;;22.80;38.40;;;;;;10232586;28;20051;-47
2024/01/11 07:19:59;;;;;;;5.15;3.35;;;22.70;38.70;;;;;;10228544;28;20513;-47
2024/01/11 07:25:01;;;;;;;6.82;3.38;;;22.60;39.20;;;;;;10225820;28;20476;-47
2024/01/11 07:30:06;;;;;;;6.15;3.95;;;22.60;39.30;;;;;;10240329;28;20051;-51
2024/01/11 07:35:10;;;;;;;16.38;5.57;;;22.60;39.60;;;;;;10215630;28;20222;-48
2024/01/11 07:40:13;;;;;;;15.30;6.22;;;22.60;41.10;;;;;;10196468;28;20078;-49
2024/01/11 07:45:16;;;;;;;18.10;6.50;;;22.80;40.80;;;;;;10193138;28;20479;-47
2024/01/11 07:50:18;;;;;;;17.67;7.03;;;22.90;41.20;;;;;;10190912;28;20152;-52
2024/01/11 07:55:23;;;;;;;31.58;9.60;;;22.90;42.10;;;;;;10193282;28;20078;-49
2024/01/11 08:00:26;;;;;;;26.65;8.60;;;22.90;42.30;;;;;;10189855;28;20076;-47
2024/01/11 08:05:28;;;;;;;24.25;7.53;;;23.00;42.10;;;;;;10177500;28;20044;-47
2024/01/11 08:10:30;;;;;;;22.60;8.07;;;22.80;42.40;;;;;;10191060;28;20414;-47
2024/01/11 08:15:34;;;;;;;19.30;8.25;;;22.90;41.90;;;;;;10175899;28;20059;-49
2024/01/11 08:20:36;;;;;;;13.48;7.28;;;22.90;41.50;;;;;;10204760;23;20104;-89
2024/01/11 08:25:40;;;;;;;15.02;6.93;;;22.80;41.50;;;;;;10209949;28;20050;-88
2024/01/11 08:30:43;;;;;;;11.77;6.43;;;22.70;41.50;;;;;;10200366;28;20458;-88
2024/01/11 08:36:03;;;;;;;14.82;6.88;;;23.10;41.00;;;;;;10224021;28;20047;-88
2024/01/11 08:41:06;;;;;;;12.00;6.50;;;23.10;40.20;;;;;;10204487;28;20066;-88
2024/01/11 08:46:09;;;;;;;10.35;6.22;;;23.20;40.20;;;;;;10219779;28;20055;-88
2024/01/11 08:51:21;;;;;;;15.98;6.07;;;23.20;40.30;;;;;;10216468;28;20083;-89
2024/01/11 08:56:23;;;;;;;13.98;6.32;;;23.20;40.20;;;;;;10242313;28;20071;-89
2024/01/11 09:01:38;;;;;;;15.30;5.80;;;23.20;40.40;;;;;;10215492;28;20499;-89
2024/01/11 09:06:40;;;;;;;12.57;5.57;;;23.20;40.90;;;;;;10220501;28;20055;-88
2024/01/11 09:11:44;;;;;;;9.20;5.68;;;23.20;40.50;;;;;;10216256;28;20051;-90
2024/01/11 09:16:50;;;;;;;10.30;5.93;;;23.10;40.40;;;;;;10224143;28;20048;-89
2024/01/11 09:21:52;;;;;;;8.88;5.30;;;23.10;40.00;;;;;;10211820;28;20410;-88
2024/01/11 09:27:56;;;;;;;10.77;5.90;;;23.20;40.00;;;;;;10214252;28;20051;-88
2024/01/11 09:44:05;;;;;;;9.20;4.93;;;23.10;39.70;;;;;;10207698;28;20283;-89
2024/01/11 09:49:23;;;;;;;13.32;4.47;;;23.00;39.70;;;;;;10210255;28;20052;-91
2024/01/11 10:05:18;;;;;;;11.27;4.60;;;23.10;40.80;;;;;;10187692;23;20419;-62
2024/01/11 10:10:20;;;;;;;12.25;4.40;;;23.20;40.70;;;;;;10183222;28;20063;-62
2024/01/11 10:15:24;;;;;;;8.30;4.20;;;23.20;40.60;;;;;;10184709;28;20086;-62
2024/01/11 10:20:29;;;;;;;13.65;4.28;;;23.30;40.70;;;;;;10185959;28;20412;-61
2024/01/11 10:25:31;;;;;;;6.47;3.70;;;23.20;41.00;;;;;;10189036;28;20052;-62
2024/01/11 10:30:33;;;;;;;11.43;3.55;;;23.50;41.10;;;;;;10191577;28;20068;-62
2024/01/11 10:35:36;;;;;;;10.27;3.33;;;23.70;41.20;;;;;;10185170;28;20063;-62
2024/01/11 10:40:38;;;;;;;13.70;3.78;;;23.90;41.50;;;;;;10180263;28;20072;-62
2024/01/11 10:45:41;;;;;;;11.82;4.03;;;23.80;42.00;;;;;;10179229;28;20136;-62
2024/01/11 10:50:45;;;;;;;11.95;3.92;;;23.70;41.30;;;;;;10181250;28;20048;-62
2024/01/11 10:55:47;;;;;;;7.28;3.35;;;23.60;41.20;;;;;;10186861;28;20079;-62
2024/01/11 11:00:49;;;;;;;5.90;3.50;;;23.70;40.90;;;;;;10188992;28;20146;-62
2024/01/11 11:05:53;;;;;;;8.88;3.88;;;23.70;40.70;;;;;;10187369;28;20765;-62
2024/01/11 11:10:56;;;;;;;14.15;3.70;;;23.80;40.70;;;;;;10181924;28;20105;-60
2024/01/11 11:15:58;;;;;;;6.35;3.53;;;23.80;40.70;;;;;;10174620;28;20059;-60
2024/01/11 11:21:01;;;;;;;10.43;3.72;;;23.80;40.90;;;;;;10180086;28;20052;-60
2024/01/11 11:26:03;;;;;;;10.63;3.30;;;23.80;41.30;;;;;;10183135;28;20060;-59
2024/01/11 11:31:05;;;;;;;7.45;3.58;;;23.80;41.60;;;;;;10185943;28;20439;-59
2024/01/11 11:36:10;;;;;;;12.40;3.33;;;23.70;41.80;;;;;;10181863;28;20063;-61
2024/01/11 11:41:12;;;;;;;13.43;3.88;;;23.70;42.10;;;;;;10189089;28;20074;-60
2024/01/11 11:46:14;;;;;;;27.85;4.00;;;23.70;42.70;;;;;;10177839;28;20102;-62
2024/01/11 11:51:17;;;;;;;16.95;4.00;;;23.70;43.30;;;;;;10182701;28;20036;-60
2024/01/11 11:56:19;;;;;;;18.27;3.78;;;23.80;42.90;;;;;;10184169;28;20778;-62
2024/01/11 12:01:21;;;;;;;15.77;3.00;;;24.10;43.40;;;;;;10176779;28;20040;-61
2024/01/11 12:06:27;;;;;;;11.75;3.88;;;24.20;44.00;;;;;;10179490;28;20068;-64
2024/01/11 12:11:28;;;;;;;11.50;3.60;;;24.00;43.50;;;;;;10180673;28;20554;-65
2024/01/11 12:16:30;;;;;;;15.70;3.78;;;23.90;43.20;;;;;;10187495;28;20137;-65
2024/01/11 12:21:33;;;;;;;12.38;3.90;;;24.00;43.10;;;;;;10186521;28;20047;-65
2024/01/11 12:26:35;;;;;;;13.10;3.28;;;23.90;42.70;;;;;;10184525;28;20075;-65
2024/01/11 12:31:36;;;;;;;11.00;3.42;;;23.90;41.40;;;;;;10184005;28;20071;-65
2024/01/11 12:36:39;;;;;;;10.70;3.58;;;23.90;41.20;;;;;;10184956;28;20052;-63
2024/01/11 12:41:42;;;;;;;9.43;3.92;;;23.90;40.80;;;;;;10186575;28;20047;-65
2024/01/11 12:46:43;;;;;;;9.02;3.90;;;23.90;40.60;;;;;;10182395;28;20051;-65
2024/01/11 12:51:46;;;;;;;12.02;3.60;;;23.90;40.80;;;;;;10191103;28;20230;-65
2024/01/11 12:56:48;;;;;;;11.85;3.50;;;23.90;41.00;;;;;;10185300;28;20091;-65
2024/01/11 13:01:50;;;;;;;12.38;3.58;;;23.90;40.90;;;;;;10149539;28;1077648;-65
2024/01/11 13:06:53;;;;;;;10.23;3.45;;;23.90;41.00;;;;;;10185007;28;20060;-62
2024/01/11 13:11:55;;;;;;;9.60;2.97;;;23.90;41.10;;;;;;10188115;28;20094;-63
2024/01/11 13:16:56;;;;;;;10.80;3.30;;;24.00;41.10;;;;;;10181951;28;20060;-62
2024/01/11 13:21:59;;;;;;;8.60;2.80;;;23.90;41.40;;;;;;10185679;28;20051;-64
2024/01/11 13:27:01;;;;;;;11.60;3.00;;;23.90;41.40;;;;;;10191478;28;20047;-64
2024/01/11 13:32:03;;;;;;;10.98;3.25;;;24.00;41.60;;;;;;10188525;28;20048;-63
2024/01/11 13:37:06;;;;;;;13.45;3.08;;;24.00;41.90;;;;;;10189868;28;20080;-62
2024/01/11 13:42:09;;;;;;;8.90;3.03;;;24.00;42.00;;;;;;10189431;28;20072;-63
2024/01/11 13:47:11;;;;;;;7.10;2.67;;;24.00;41.80;;;;;;10187883;28;20078;-63
2024/01/11 13:52:14;;;;;;;13.73;3.08;;;24.00;41.80;;;;;;10181439;28;20403;-62
2024/01/11 13:57:16;;;;;;;12.75;3.47;;;24.00;42.00;;;;;;10184434;28;20072;-63
2024/01/11 14:02:18;;;;;;;10.65;3.17;;;24.00;41.80;;;;;;10181276;28;20056;-62
2024/01/11 14:07:21;;;;;;;15.15;2.90;;;24.00;42.00;;;;;;10184789;28;20510;-61
2024/01/11 14:12:22;;;;;;;12.65;3.10;;;24.00;42.30;;;;;;10198086;28;20083;-64
2024/01/11 14:17:24;;;;;;;17.45;3.20;;;24.00;42.70;;;;;;10203152;28;20052;-62
2024/01/11 14:22:27;;;;;;;12.02;3.13;;;24.10;42.80;;;;;;10245571;28;20101;-62
2024/01/11 14:27:30;;;;;;;11.55;2.72;;;24.20;42.40;;;;;;10246525;28;20055;-62
2024/01/11 14:32:32;;;;;;;7.53;2.78;;;24.30;42.30;;;;;;10211605;28;20048;-61
2024/01/11 14:37:36;;;;;;;10.90;3.00;;;24.30;42.10;;;;;;10167517;28;20060;-61
2024/01/11 14:42:38;;;;;;;11.65;2.90;;;24.40;42.00;;;;;;10165295;28;20060;-61
2024/01/11 14:47:39;;;;;;;7.72;2.47;;;24.40;41.70;;;;;;10167159;28;20060;-58
2024/01/11 14:52:43;;;;;;;9.30;2.83;;;24.50;41.70;;;;;;10166981;28;20496;-58
2024/01/11 14:57:45;;;;;;;4.88;2.40;;;24.50;41.50;;;;;;10166530;28;20138;-61
2024/01/11 15:02:49;;;;;;;6.50;2.55;;;24.50;41.50;;;;;;10288397;28;20099;-61
2024/01/11 15:07:54;;;;;;;6.78;2.42;;;24.60;41.40;;;;;;10412345;28;20436;-61
2024/01/11 15:12:56;;;;;;;8.30;2.50;;;24.60;41.30;;;;;;10411972;28;20337;-61
2024/01/11 15:17:58;;;;;;;6.85;2.35;;;24.60;41.20;;;;;;10411503;28;20060;-61
2024/01/11 15:23:03;;;;;;;10.40;2.40;;;24.70;41.10;;;;;;10410371;28;20080;-62
2024/01/11 15:28:05;;;;;;;10.40;2.20;;;24.60;41.00;;;;;;10227669;28;20057;-61
2024/01/11 15:33:06;;;;;;;7.07;2.30;;;24.60;41.50;;;;;;10205170;28;20071;-59
2024/01/11 15:38:09;;;;;;;8.48;2.13;;;24.60;41.60;;;;;;10204965;28;20079;-60
2024/01/11 15:43:11;;;;;;;8.32;2.10;;;24.70;41.60;;;;;;10204671;28;20074;-61
2024/01/11 15:48:13;;;;;;;3.85;1.67;;;24.70;41.40;;;;;;10204473;28;20067;-61
2024/01/11 15:53:16;;;;;;;9.02;2.38;;;24.70;41.40;;;;;;10204021;28;20070;-61
2024/01/11 15:58:18;;;;;;;9.68;2.45;;;24.70;41.80;;;;;;10204488;28;20126;-61
2024/01/11 16:03:20;;;;;;;8.27;2.28;;;24.60;42.10;;;;;;10204358;28;20450;-61
2024/01/11 16:08:24;;;;;;;14.23;2.50;;;24.70;41.70;;;;;;10233773;28;20079;-61
2024/01/11 16:13:25;;;;;;;16.70;2.50;;;25.00;41.60;;;;;;10243267;28;20109;-61
2024/01/11 16:18:27;;;;;;;8.40;2.25;;;25.70;40.60;;;;;;10243642;28;20429;-61
2024/01/11 16:23:32;;;;;;;7.80;2.40;;;25.60;40.50;;;;;;10243111;28;20138;-61
2024/01/11 16:28:33;;;;;;;7.55;2.20;;;25.60;40.40;;;;;;10242894;28;20117;-61
2024/01/11 16:33:35;;;;;;;8.95;2.20;;;25.60;40.20;;;;;;10243136;28;20387;-61
2024/01/11 16:38:38;;;;;;;7.20;2.17;;;25.60;40.30;;;;;;10242837;28;20093;-61
2024/01/11 16:43:40;;;;;;;11.38;2.45;;;25.60;40.10;;;;;;10228261;28;20106;-62
2024/01/11 16:48:42;;;;;;;9.68;2.00;;;25.60;40.40;;;;;;10220452;28;20078;-62
2024/01/11 16:53:45;;;;;;;14.55;2.42;;;25.70;40.10;;;;;;10202376;28;20054;-62
2024/01/11 16:58:47;;;;;;;8.20;1.92;;;25.70;40.90;;;;;;10213370;28;20553;-62
2024/01/11 17:03:49;;;;;;;9.05;2.10;;;25.80;40.80;;;;;;10205722;28;20067;-62
2024/01/11 17:08:52;;;;;;;15.02;2.08;;;25.90;40.70;;;;;;10216160;28;20051;-62
2024/01/11 17:13:55;;;;;;;7.10;2.03;;;26.10;40.30;;;;;;10208071;28;20074;-63
2024/01/11 17:18:57;;;;;;;6.35;2.42;;;26.00;40.10;;;;;;10208716;28;20419;-62
2024/01/11 17:24:00;;;;;;;6.93;1.95;;;26.00;40.10;;;;;;10227195;28;20074;-62
2024/01/11 17:29:01;;;;;;;5.97;1.88;;;26.00;40.00;;;;;;10233502;28;20135;-63
2024/01/11 17:34:03;;;;;;;11.43;2.28;;;26.00;40.00;;;;;;10207817;28;20122;-63
2024/01/11 17:39:06;;;;;;;20.52;2.58;;;26.00;40.60;;;;;;10245836;28;20070;-60
2024/01/11 17:44:08;;;;;;;16.33;2.42;;;26.10;40.50;;;;;;10226650;28;20074;-58
2024/01/11 17:49:10;;;;;;;12.63;2.42;;;26.20;40.40;;;;;;10204120;28;20058;-59
2024/01/11 17:54:13;;;;;;;8.43;2.70;;;26.20;40.40;;;;;;10205608;28;20040;-60
2024/01/11 17:59:15;;;;;;;10.30;2.08;;;26.30;40.50;;;;;;10204241;28;20048;-60
2024/01/11 18:04:18;;;;;;;10.23;2.00;;;26.30;40.40;;;;;;10225375;28;20121;-59
2024/01/11 18:09:21;;;;;;;5.90;2.10;;;26.50;40.10;;;;;;10220303;28;20052;-60
2024/01/11 18:14:23;;;;;;;14.80;2.83;;;26.50;39.80;;;;;;10211439;28;20052;-59
2024/01/11 18:19:24;;;;;;;8.15;2.30;;;26.50;39.90;;;;;;10195810;28;20078;-63
2024/01/11 18:24:28;;;;;;;10.52;2.25;;;26.40;39.80;;;;;;10223727;28;20098;-61
2024/01/11 18:29:29;;;;;;;13.68;2.35;;;26.50;39.80;;;;;;10199336;28;20094;-67
2024/01/11 18:34:32;;;;;;;11.45;2.40;;;26.50;40.40;;;;;;10184803;28;20044;-65
2024/01/11 18:39:35;;;;;;;15.40;2.30;;;26.60;40.40;;;;;;10185814;28;20056;-66
2024/01/11 18:44:37;;;;;;;10.30;2.10;;;26.50;40.20;;;;;;10183995;28;20458;-65
2024/01/11 18:49:38;;;;;;;21.10;2.67;;;26.40;41.00;;;;;;10184378;28;20071;-66
2024/01/11 18:54:43;;;;;;;9.15;2.20;;;26.70;41.00;;;;;;10181930;28;20076;-66
2024/01/11 18:59:44;;;;;;;6.07;2.00;;;26.50;40.60;;;;;;10177355;28;20059;-65
2024/01/11 19:04:46;;;;;;;6.88;1.85;;;26.80;40.60;;;;;;10185251;28;20048;-67
2024/01/11 19:09:49;;;;;;;10.82;2.28;;;26.60;40.00;;;;;;10182946;28;20518;-67
2024/01/11 19:14:51;;;;;;;10.75;2.22;;;26.30;40.10;;;;;;10180277;28;20055;-67
2024/01/11 19:19:52;;;;;;;6.40;1.92;;;26.10;40.00;;;;;;10185388;28;20084;-67
2024/01/11 19:24:55;;;;;;;6.85;2.10;;;25.80;40.10;;;;;;10170723;28;20109;-66
2024/01/11 19:29:57;;;;;;;4.35;1.85;;;26.40;39.10;;;;;;10172076;28;20134;-67
2024/01/11 19:34:59;;;;;;;5.70;1.90;;;26.50;38.40;;;;;;10165462;28;20076;-67
2024/01/11 19:40:02;;;;;;;3.67;1.80;;;26.30;38.40;;;;;;10187622;28;20090;-67
2024/01/11 19:45:05;;;;;;;6.25;1.98;;;26.10;39.00;;;;;;10167103;28;20051;-67
2024/01/11 19:50:08;;;;;;;5.07;1.95;;;25.90;39.40;;;;;;10184405;28;20051;-67
2024/01/11 19:55:13;;;;;;;7.00;2.30;;;25.80;39.90;;;;;;10175174;28;20051;-67
2024/01/11 20:00:15;;;;;;;6.78;1.88;;;25.80;40.20;;;;;;10178846;28;20047;-67
2024/01/11 20:05:17;;;;;;;13.27;2.42;;;25.40;40.90;;;;;;10173438;28;20153;-67
2024/01/11 20:10:20;;;;;;;10.70;1.90;;;25.30;41.20;;;;;;10181841;28;20044;-67
2024/01/11 20:15:22;;;;;;;7.68;2.30;;;25.40;41.00;;;;;;10173522;28;20114;-68
2024/01/11 20:25:28;;;;;;;7.30;2.10;;;25.00;41.70;;;;;;10149452;28;20044;-53
2024/01/11 20:30:30;;;;;;;5.15;1.83;;;24.90;41.80;;;;;;10152465;28;20071;-52
2024/01/11 20:35:32;;;;;;;5.45;2.22;;;24.90;41.80;;;;;;10149638;28;20110;-53
2024/01/11 20:40:37;;;;;;;4.22;2.20;;;24.70;41.80;;;;;;10143078;28;20140;-54
2024/01/11 20:45:39;;;;;;;4.78;2.10;;;24.60;42.00;;;;;;10154915;28;20044;-53
2024/01/11 20:50:40;;;;;;;7.20;2.20;;;24.40;42.10;;;;;;10153149;28;20070;-48
2024/01/11 20:55:43;;;;;;;7.40;1.98;;;24.40;42.10;;;;;;10157400;28;20063;-50
2024/01/11 21:00:45;;;;;;;8.35;2.42;;;24.10;42.40;;;;;;10155030;28;20512;-53
2024/01/11 21:05:48;;;;;;;6.35;2.00;;;24.00;42.60;;;;;;10149975;28;20139;-49
2024/01/11 21:10:51;;;;;;;7.55;2.20;;;24.00;42.40;;;;;;10162144;28;20052;-48
2024/01/11 21:15:53;;;;;;;5.70;2.40;;;23.90;42.50;;;;;;10153903;28;20114;-53
2024/01/11 21:20:57;;;;;;;8.75;2.00;;;23.90;42.20;;;;;;10151490;28;20490;-51
2024/01/11 21:26:01;;;;;;;6.80;2.58;;;23.80;42.10;;;;;;10155688;28;20060;-50
2024/01/11 21:31:02;;;;;;;6.40;2.13;;;23.60;42.20;;;;;;10148316;28;20523;-49
2024/01/11 21:36:05;;;;;;;4.70;2.30;;;23.70;42.10;;;;;;10149547;28;20413;-50
2024/01/11 21:41:07;;;;;;;3.42;2.13;;;23.50;42.30;;;;;;10149619;28;20533;-56
2024/01/11 21:46:09;;;;;;;4.80;2.10;;;23.40;42.10;;;;;;10153501;28;20706;-49
2024/01/11 21:51:11;;;;;;;3.55;2.13;;;23.40;42.10;;;;;;10150646;28;20045;-56
2024/01/11 21:56:14;;;;;;;4.35;2.40;;;23.30;41.90;;;;;;10154250;28;20071;-54
2024/01/11 22:01:15;;;;;;;4.63;2.22;;;23.30;42.00;;;;;;10152511;28;20159;-55
2024/01/11 22:06:17;;;;;;;3.92;2.17;;;23.30;41.80;;;;;;10142837;28;20048;-52
2024/01/11 22:11:20;;;;;;;3.88;2.30;;;23.20;41.90;;;;;;10151605;28;20056;-55
2024/01/11 22:16:21;;;;;;;2.65;2.17;;;23.10;41.90;;;;;;10147109;28;20059;-50
2024/01/11 22:21:23;;;;;;;3.05;2.10;;;22.90;41.80;;;;;;10150465;28;20131;-56
2024/01/11 22:26:28;;;;;;;3.38;2.30;;;22.80;42.30;;;;;;10151967;28;20055;-49
2024/01/11 22:31:33;;;;;;;9.07;2.60;;;22.50;42.70;;;;;;10151014;28;20059;-53
2024/01/11 22:36:35;;;;;;;6.45;2.20;;;22.30;45.90;;;;;;10148645;28;20056;-54
2024/01/11 22:41:39;;;;;;;4.10;2.33;;;22.00;47.50;;;;;;10153250;28;20066;-50
2024/01/11 22:46:41;;;;;;;9.60;2.58;;;22.20;47.90;;;;;;10144008;28;20057;-50
2024/01/11 22:51:43;;;;;;;4.07;2.47;;;22.10;47.30;;;;;;10146360;28;20143;-51
2024/01/11 22:56:46;;;;;;;3.75;2.63;;;22.00;47.40;;;;;;10145663;28;20131;-50
2024/01/11 23:01:47;;;;;;;3.70;2.05;;;22.00;47.40;;;;;;10150431;28;20052;-52
2024/01/11 23:06:49;;;;;;;5.43;2.30;;;21.90;47.50;;;;;;10149915;28;20056;-55
2024/01/11 23:11:52;;;;;;;5.70;2.20;;;22.00;47.20;;;;;;10148177;28;20059;-48
2024/01/11 23:16:53;;;;;;;3.80;2.00;;;21.80;47.40;;;;;;10150634;28;20052;-53
2024/01/11 23:21:55;;;;;;;4.35;2.20;;;21.70;47.70;;;;;;10142081;28;20131;-48
2024/01/11 23:26:58;;;;;;;3.03;2.00;;;21.90;47.00;;;;;;10144194;28;20510;-49
2024/01/11 23:31:59;;;;;;;2.00;1.75;;;21.60;47.50;;;;;;10142893;28;20078;-50
2024/01/11 23:37:01;;;;;;;2.72;1.85;;;21.60;47.50;;;;;;10145393;28;20082;-54
2024/01/11 23:42:06;;;;;;;3.10;2.00;;;21.80;47.10;;;;;;10148294;28;20052;-53
2024/01/11 23:47:08;;;;;;;2.65;2.05;;;21.40;47.80;;;;;;10150569;28;20062;-49
2024/01/11 23:52:09;;;;;;;3.00;1.73;;;21.70;47.00;;;;;;10148970;28;20131;-50
2024/01/11 23:57:12;;;;;;;1.90;1.70;;;21.60;47.30;;;;;;10151014;28;20080;-53
